createdAt,value
2022-10-23T00:01:13.829Z,10.95
2022-10-23T00:03:41.333Z,10.18
2022-10-23T00:06:08.798Z,9.48
2022-10-23T00:08:35.701Z,11.95
2022-10-23T00:11:09.275Z,10.57
2022-10-23T00:13:36.743Z,11.05
2022-10-23T00:16:04.515Z,9.60
2022-10-23T00:18:31.387Z,11.18
2022-10-23T00:20:58.419Z,9.43
2022-10-23T00:23:25.464Z,11.90
2022-10-23T00:25:52.286Z,12.73
2022-10-23T00:28:20.575Z,11.40
2022-10-23T00:30:47.746Z,12.02
2022-10-23T00:33:16.255Z,11.68
2022-10-23T00:35:43.473Z,12.27
2022-10-23T00:38:12.028Z,14.48
2022-10-23T00:40:39.651Z,11.52
2022-10-23T00:43:11.041Z,9.55
2022-10-23T00:45:39.767Z,9.38
2022-10-23T00:48:06.606Z,8.15
2022-10-23T00:50:33.905Z,10.23
2022-10-23T00:53:04.548Z,10.73
2022-10-23T00:55:33.781Z,12.80
2022-10-23T01:00:55.700Z,10.98
2022-10-23T01:03:27.507Z,13.65
2022-10-23T01:06:03.185Z,9.30
2022-10-23T01:08:42.979Z,10.32
2022-10-23T01:11:20.370Z,11.88
2022-10-23T01:13:59.459Z,13.85
2022-10-23T01:16:39.126Z,14.77
2022-10-23T01:19:20.352Z,14.52
2022-10-23T01:22:05.650Z,11.50
2022-10-23T01:24:47.874Z,13.48
2022-10-23T01:27:23.938Z,7.95
2022-10-23T01:30:05.736Z,9.35
2022-10-23T01:32:47.918Z,11.93
2022-10-23T01:35:21.985Z,9.77
2022-10-23T01:38:06.277Z,12.13
2022-10-23T01:40:39.853Z,10.40
2022-10-23T01:43:19.973Z,10.90
2022-10-23T01:45:52.956Z,10.73
2022-10-23T01:48:28.174Z,11.60
2022-10-23T01:51:01.301Z,10.38
2022-10-23T01:53:36.627Z,12.85
2022-10-23T01:56:12.837Z,15.18
2022-10-23T01:58:47.117Z,14.93
2022-10-23T02:01:18.685Z,14.07
2022-10-23T02:03:51.582Z,11.95
2022-10-23T02:06:18.914Z,10.27
2022-10-23T02:08:46.570Z,10.57
2022-10-23T02:11:18.063Z,10.50
2022-10-23T02:13:58.154Z,9.57
2022-10-23T02:16:38.610Z,9.43
2022-10-23T02:19:15.734Z,8.80
2022-10-23T02:21:54.358Z,9.45
2022-10-23T02:24:33.639Z,9.88
2022-10-23T02:27:08.170Z,8.68
2022-10-23T02:29:43.720Z,8.95
2022-10-23T02:32:15.183Z,8.88
2022-10-23T02:34:42.119Z,9.18
2022-10-23T02:37:10.844Z,9.85
2022-10-23T02:39:38.513Z,9.23
2022-10-23T02:42:12.665Z,10.20
2022-10-23T02:45:01.010Z,10.48
2022-10-23T02:47:44.723Z,10.18
2022-10-23T02:50:26.122Z,10.57
2022-10-23T02:53:06.039Z,9.57
2022-10-23T02:55:47.891Z,10.07
2022-10-23T02:58:27.478Z,10.02
2022-10-23T03:01:05.675Z,9.88
2022-10-23T03:03:40.547Z,8.90
2022-10-23T03:06:08.610Z,8.02
2022-10-23T03:08:54.719Z,8.48
2022-10-23T03:11:24.735Z,9.32
2022-10-23T03:13:51.994Z,12.32
2022-10-23T03:16:20.296Z,9.63
2022-10-23T03:19:13.527Z,8.68
2022-10-23T03:21:40.880Z,8.90
2022-10-23T03:24:09.089Z,8.57
2022-10-23T03:26:41.665Z,8.90
2022-10-23T03:29:08.500Z,11.93
2022-10-23T03:31:42.937Z,8.70
2022-10-23T03:34:10.038Z,5.95
2022-10-23T03:36:39.709Z,10.73
2022-10-23T03:39:08.065Z,7.05
2022-10-23T03:42:00.218Z,8.13
2022-10-23T03:44:28.471Z,7.95
2022-10-23T03:46:58.909Z,8.98
2022-10-23T03:49:26.876Z,7.85
2022-10-23T03:51:54.026Z,7.50
2022-10-23T03:54:23.713Z,7.53
2022-10-23T03:56:53.734Z,7.40
2022-10-23T03:59:23.897Z,6.97
2022-10-23T04:02:18.218Z,6.93
2022-10-23T04:04:45.221Z,6.45
2022-10-23T04:07:13.562Z,8.15
2022-10-23T04:09:40.986Z,6.88
2022-10-23T04:12:08.628Z,6.68
2022-10-23T04:14:35.683Z,6.53
2022-10-23T04:17:03.450Z,8.77
2022-10-23T04:19:32.061Z,5.82
2022-10-23T04:21:59.195Z,7.13
2022-10-23T04:24:26.800Z,9.32
2022-10-23T04:26:54.086Z,6.35
2022-10-23T04:29:21.610Z,6.72
2022-10-23T04:31:48.841Z,6.40
2022-10-23T04:34:17.201Z,6.03
2022-10-23T04:36:46.058Z,8.50
2022-10-23T04:39:13.091Z,6.45
2022-10-23T04:41:40.698Z,7.97
2022-10-23T04:44:08.199Z,7.93
2022-10-23T04:46:38.355Z,6.95
2022-10-23T04:49:05.602Z,7.35
2022-10-23T04:51:50.202Z,7.53
2022-10-23T04:54:46.250Z,7.57
2022-10-23T04:57:24.022Z,6.82
2022-10-23T05:00:03.418Z,7.30
2022-10-23T05:02:38.328Z,7.82
2022-10-23T05:05:07.374Z,9.88
2022-10-23T05:07:37.207Z,7.63
2022-10-23T05:10:22.887Z,11.52
2022-10-23T05:12:56.425Z,7.70
2022-10-23T05:15:24.700Z,9.35
2022-10-23T05:17:59.275Z,9.10
2022-10-23T05:20:35.377Z,9.88
2022-10-23T05:23:10.656Z,7.95
2022-10-23T05:25:38.606Z,8.88
2022-10-23T05:28:24.031Z,9.75
2022-10-23T05:30:51.733Z,9.68
2022-10-23T05:33:19.036Z,9.27
2022-10-23T05:35:48.305Z,7.68
2022-10-23T05:38:18.290Z,8.63
2022-10-23T05:40:45.781Z,7.47
2022-10-23T05:43:19.089Z,8.55
2022-10-23T05:46:05.777Z,8.40
2022-10-23T05:48:35.252Z,8.13
2022-10-23T05:51:11.731Z,8.77
2022-10-23T05:53:49.212Z,9.20
2022-10-23T05:56:40.313Z,8.07
2022-10-23T06:05:20.097Z,9.32
2022-10-23T06:07:58.515Z,7.82
2022-10-23T06:10:27.617Z,7.10
2022-10-23T06:12:57.335Z,6.50
2022-10-23T06:15:26.525Z,8.48
2022-10-23T06:18:01.359Z,7.80
2022-10-23T06:20:29.699Z,8.10
2022-10-23T06:23:08.837Z,9.18
2022-10-23T06:26:10.931Z,7.90
2022-10-23T06:28:49.436Z,9.02
2022-10-23T06:31:17.993Z,7.50
2022-10-23T06:33:45.105Z,7.05
2022-10-23T06:36:12.592Z,7.90
2022-10-23T06:38:41.748Z,7.70
2022-10-23T06:41:14.738Z,7.90
2022-10-23T06:43:43.842Z,8.48
2022-10-23T06:46:13.753Z,9.43
2022-10-23T06:49:04.051Z,7.47
2022-10-23T06:54:04.590Z,8.15
2022-10-23T06:56:51.497Z,8.05
2022-10-23T06:59:22.841Z,7.43
2022-10-23T07:01:52.142Z,7.07
2022-10-23T07:04:19.385Z,8.57
2022-10-23T07:06:46.818Z,7.70
2022-10-23T07:09:14.113Z,7.75
2022-10-23T07:14:45.318Z,9.93
2022-10-23T07:17:12.828Z,7.10
2022-10-23T07:19:40.190Z,8.50
2022-10-23T07:22:13.438Z,7.28
2022-10-23T07:24:47.356Z,5.72
2022-10-23T07:27:26.112Z,6.82
2022-10-23T07:29:57.720Z,7.57
2022-10-23T07:32:29.150Z,6.43
2022-10-23T07:35:25.335Z,6.30
2022-10-23T07:37:59.766Z,6.50
2022-10-23T07:40:29.396Z,5.55
2022-10-23T07:42:58.570Z,7.32
2022-10-23T07:45:26.677Z,8.25
2022-10-23T07:47:54.237Z,5.10
2022-10-23T07:50:25.051Z,6.43
2022-10-23T07:52:52.551Z,8.63
2022-10-23T07:55:20.633Z,6.38
2022-10-23T07:57:51.029Z,5.68
2022-10-23T08:00:35.204Z,8.32
2022-10-23T08:03:11.704Z,6.15
2022-10-23T08:05:39.460Z,6.93
2022-10-23T08:08:06.489Z,7.28
2022-10-23T08:10:33.965Z,6.00
2022-10-23T08:13:01.412Z,7.00
2022-10-23T08:15:52.314Z,7.25
2022-10-23T08:18:40.778Z,6.78
2022-10-23T08:21:10.277Z,6.25
2022-10-23T08:23:38.444Z,6.05
2022-10-23T08:26:07.122Z,6.28
2022-10-23T08:28:35.797Z,8.27
2022-10-23T08:31:10.838Z,8.70
2022-10-23T08:33:38.972Z,7.30
2022-10-23T08:36:18.379Z,6.60
2022-10-23T08:38:46.245Z,8.63
2022-10-23T08:41:28.680Z,6.57
2022-10-23T08:44:16.781Z,6.03
2022-10-23T08:46:52.737Z,8.43
2022-10-23T08:49:50.482Z,9.35
2022-10-23T08:52:28.182Z,6.90
2022-10-23T08:55:06.235Z,7.43
2022-10-23T08:57:43.462Z,6.63
2022-10-23T09:00:15.969Z,8.02
2022-10-23T09:02:48.228Z,8.25
2022-10-23T09:05:21.363Z,6.88
2022-10-23T09:08:07.619Z,11.57
2022-10-23T09:10:51.943Z,8.98
2022-10-23T09:13:53.376Z,9.02
2022-10-23T09:16:41.121Z,7.38
2022-10-23T09:19:18.220Z,8.30
2022-10-23T09:21:48.716Z,6.72
2022-10-23T09:24:18.676Z,7.30
2022-10-23T09:26:46.397Z,8.68
2022-10-23T09:29:23.678Z,7.15
2022-10-23T09:31:52.584Z,6.93
2022-10-23T09:34:25.290Z,7.78
2022-10-23T09:36:59.303Z,6.95
2022-10-23T09:39:31.164Z,7.53
2022-10-23T09:41:59.452Z,7.50
2022-10-23T09:44:29.976Z,7.95
2022-10-23T09:47:08.389Z,6.63
2022-10-23T09:49:46.163Z,7.70
2022-10-23T09:52:29.067Z,5.65
2022-10-23T09:54:59.874Z,7.88
2022-10-23T09:57:33.848Z,8.55
2022-10-23T10:00:06.380Z,7.05
2022-10-23T10:02:38.977Z,7.72
2022-10-23T10:05:31.035Z,8.02
2022-10-23T10:08:10.863Z,7.28
2022-10-23T10:10:47.011Z,9.60
2022-10-23T10:13:45.064Z,6.25
2022-10-23T10:16:26.243Z,6.95
2022-10-23T10:19:06.106Z,9.10
2022-10-23T10:21:46.282Z,9.27
2022-10-23T10:24:21.387Z,6.65
2022-10-23T10:27:01.593Z,7.50
2022-10-23T10:29:48.749Z,6.40
2022-10-23T10:32:35.156Z,4.85
2022-10-23T10:35:22.156Z,6.00
2022-10-23T10:38:20.829Z,5.78
2022-10-23T10:41:08.788Z,5.47
2022-10-23T10:43:46.635Z,9.43
2022-10-23T10:46:23.875Z,6.03
2022-10-23T10:49:01.577Z,8.43
2022-10-23T10:51:51.292Z,7.90
2022-10-23T10:54:40.600Z,6.97
2022-10-23T10:57:20.456Z,7.28
2022-10-23T10:59:55.974Z,5.38
2022-10-23T11:02:30.218Z,12.35
2022-10-23T11:05:09.975Z,3.28
2022-10-23T11:07:46.636Z,5.97
2022-10-23T11:10:19.062Z,5.60
2022-10-23T11:12:48.721Z,5.07
2022-10-23T11:15:21.010Z,6.28
2022-10-23T11:17:53.608Z,8.02
2022-10-23T11:20:49.159Z,9.63
2022-10-23T11:23:47.489Z,9.27
2022-10-23T11:26:36.333Z,6.30
2022-10-23T11:29:56.084Z,5.05
2022-10-23T11:32:51.497Z,5.22
2022-10-23T11:35:42.575Z,10.15
2022-10-23T11:38:21.515Z,3.75
2022-10-23T11:40:55.944Z,6.68
2022-10-23T11:43:31.855Z,7.78
2022-10-23T11:45:59.769Z,6.13
2022-10-23T11:48:38.239Z,5.28
2022-10-23T11:51:08.167Z,4.07
2022-10-23T11:53:40.297Z,7.72
2022-10-23T11:56:27.374Z,9.70
2022-10-23T11:58:59.442Z,4.50
2022-10-23T12:01:37.073Z,7.80
2022-10-23T12:04:21.066Z,4.57
2022-10-23T12:06:52.462Z,7.15
2022-10-23T12:09:28.791Z,3.50
2022-10-23T12:12:15.698Z,4.90
2022-10-23T12:14:47.043Z,3.20
2022-10-23T12:17:34.882Z,7.75
2022-10-23T12:20:18.415Z,5.47
2022-10-23T12:22:56.537Z,5.88
2022-10-23T12:25:34.281Z,6.32
2022-10-23T12:28:12.484Z,6.72
2022-10-23T12:30:56.314Z,5.20
2022-10-23T12:33:35.085Z,4.38
2022-10-23T12:36:29.437Z,3.85
2022-10-23T12:41:48.113Z,9.18
2022-10-23T12:44:15.062Z,4.90
2022-10-23T12:46:49.801Z,5.35
2022-10-23T12:49:20.982Z,5.15
2022-10-23T12:51:56.401Z,7.35
2022-10-23T12:54:23.989Z,6.00
2022-10-23T12:56:51.143Z,6.25
2022-10-23T12:59:23.137Z,4.57
2022-10-23T13:01:53.107Z,5.60
2022-10-23T13:04:34.819Z,4.55
2022-10-23T13:07:03.827Z,6.63
2022-10-23T13:09:35.816Z,6.45
2022-10-23T13:12:24.599Z,6.80
2022-10-23T13:15:01.803Z,8.07
2022-10-23T13:17:40.781Z,2.92
2022-10-23T13:20:24.318Z,9.05
2022-10-23T13:23:10.063Z,5.43
2022-10-23T13:25:39.538Z,4.15
2022-10-23T13:28:24.815Z,9.27
2022-10-23T13:31:22.447Z,5.35
2022-10-23T13:34:05.142Z,3.42
2022-10-23T13:41:44.600Z,3.40
2022-10-23T13:44:13.646Z,3.90
2022-10-23T13:46:41.807Z,5.82
2022-10-23T13:49:10.309Z,4.10
2022-10-23T13:51:43.877Z,6.18
2022-10-23T13:54:16.146Z,3.95
2022-10-23T13:56:43.429Z,10.25
2022-10-23T13:59:11.522Z,4.78
2022-10-23T14:01:39.554Z,3.88
2022-10-23T14:04:08.019Z,5.07
2022-10-23T14:06:36.543Z,3.80
2022-10-23T14:09:05.331Z,4.57
2022-10-23T14:11:32.580Z,5.50
2022-10-23T14:14:00.305Z,6.90
2022-10-23T14:16:28.382Z,5.22
2022-10-23T14:18:56.319Z,7.45
2022-10-23T14:21:24.753Z,4.72
2022-10-23T14:23:54.256Z,6.03
2022-10-23T14:26:24.177Z,4.25
2022-10-23T14:28:53.707Z,7.00
2022-10-23T14:31:21.711Z,3.53
2022-10-23T14:33:53.529Z,3.70
2022-10-23T14:38:50.532Z,3.65
2022-10-23T14:41:46.785Z,4.38
2022-10-23T14:44:14.358Z,9.52
2022-10-23T14:46:41.741Z,3.92
2022-10-23T14:49:08.632Z,4.07
2022-10-23T14:51:36.412Z,8.13
2022-10-23T14:54:06.658Z,4.20
2022-10-23T14:56:38.493Z,5.88
2022-10-23T14:59:07.868Z,5.05
2022-10-23T15:01:43.525Z,3.90
2022-10-23T15:04:12.823Z,4.35
2022-10-23T15:06:39.832Z,3.33
2022-10-23T15:09:06.980Z,8.82
2022-10-23T15:11:34.032Z,6.93
2022-10-23T15:14:01.601Z,4.53
2022-10-23T15:16:30.129Z,7.22
2022-10-23T15:18:57.676Z,6.88
2022-10-23T15:21:25.088Z,4.53
2022-10-23T15:23:52.209Z,5.95
2022-10-23T15:26:21.255Z,9.27
2022-10-23T15:28:52.293Z,6.15
2022-10-23T15:31:44.738Z,5.88
2022-10-23T15:34:16.272Z,5.15
2022-10-23T15:36:46.575Z,4.53
2022-10-23T15:39:16.730Z,4.03
2022-10-23T15:41:44.897Z,6.43
2022-10-23T15:44:17.533Z,4.60
2022-10-23T15:46:46.438Z,2.92
2022-10-23T15:49:16.200Z,4.43
2022-10-23T15:51:43.664Z,5.20
2022-10-23T15:54:15.325Z,4.65
2022-10-23T15:56:42.898Z,4.80
2022-10-23T15:59:12.521Z,5.35
2022-10-23T16:01:45.131Z,5.03
2022-10-23T16:04:14.485Z,5.50
2022-10-23T16:06:41.891Z,4.30
2022-10-23T16:09:08.929Z,2.90
2022-10-23T16:11:38.127Z,5.10
2022-10-23T16:14:07.643Z,4.43
2022-10-23T16:16:35.171Z,5.55
2022-10-23T16:19:04.620Z,7.95
2022-10-23T16:21:35.967Z,4.40
2022-10-23T16:24:06.968Z,6.55
2022-10-23T16:26:35.378Z,3.95
2022-10-23T16:29:06.371Z,5.30
2022-10-23T16:31:39.801Z,8.85
2022-10-23T16:34:07.480Z,5.32
2022-10-23T16:36:37.038Z,3.72
2022-10-23T16:39:19.385Z,4.85
2022-10-23T16:42:15.418Z,3.10
2022-10-23T16:45:08.954Z,4.40
2022-10-23T16:47:36.217Z,4.72
2022-10-23T16:50:06.051Z,5.20
2022-10-23T16:52:39.251Z,4.28
2022-10-23T16:55:09.769Z,4.18
2022-10-23T16:57:37.849Z,5.32
2022-10-23T17:00:07.649Z,5.35
2022-10-23T17:02:35.028Z,4.55
2022-10-23T17:05:02.421Z,7.25
2022-10-23T17:07:29.420Z,4.53
2022-10-23T17:09:58.321Z,9.18
2022-10-23T17:12:26.650Z,3.08
2022-10-23T17:14:55.084Z,6.95
2022-10-23T17:17:22.383Z,4.13
2022-10-23T17:19:52.834Z,7.72
2022-10-23T17:22:20.477Z,5.85
2022-10-23T17:24:51.430Z,7.07
2022-10-23T17:27:22.655Z,6.47
2022-10-23T17:29:56.165Z,7.28
2022-10-23T17:32:27.734Z,5.05
2022-10-23T17:34:58.553Z,8.38
2022-10-23T17:37:27.660Z,3.92
2022-10-23T17:39:56.424Z,7.40
2022-10-23T17:42:27.891Z,6.95
2022-10-23T17:44:55.446Z,8.90
2022-10-23T18:04:17.849Z,8.10
2022-10-23T18:06:50.349Z,6.18
2022-10-23T18:11:48.794Z,7.47
2022-10-23T18:14:18.434Z,5.88
2022-10-23T18:16:46.392Z,6.80
2022-10-23T18:19:16.642Z,5.22
2022-10-23T18:21:47.972Z,9.88
2022-10-23T18:24:16.399Z,3.85
2022-10-23T18:26:45.091Z,8.38
2022-10-23T18:29:14.072Z,7.60
2022-10-23T18:31:42.250Z,17.50
2022-10-23T18:34:17.205Z,4.57
2022-10-23T18:36:44.546Z,5.80
2022-10-23T18:39:21.731Z,8.13
2022-10-23T18:41:52.267Z,3.72
2022-10-23T18:44:22.892Z,4.45
2022-10-23T18:46:51.608Z,5.80
2022-10-23T18:49:20.507Z,5.40
2022-10-23T18:51:48.672Z,2.90
2022-10-23T18:54:19.216Z,7.72
2022-10-23T18:56:47.078Z,5.60
2022-10-23T18:59:18.496Z,4.47
2022-10-23T19:01:53.694Z,6.20
2022-10-23T19:04:22.469Z,4.68
2022-10-23T19:06:50.852Z,4.40
2022-10-23T19:09:18.224Z,5.80
2022-10-23T19:11:45.582Z,8.15
2022-10-23T19:14:13.225Z,6.13
2022-10-23T19:16:46.113Z,6.03
2022-10-23T19:19:20.023Z,4.32
2022-10-23T19:21:50.258Z,6.20
2022-10-23T19:24:25.683Z,5.10
2022-10-23T19:26:55.528Z,6.38
2022-10-23T19:29:25.743Z,8.40
2022-10-23T19:31:54.233Z,5.22
2022-10-23T19:34:23.759Z,8.18
2022-10-23T19:36:53.974Z,6.88
2022-10-23T19:39:23.301Z,5.78
2022-10-23T19:41:50.303Z,8.27
2022-10-23T19:44:17.754Z,9.68
2022-10-23T19:46:46.014Z,6.60
2022-10-23T19:49:14.433Z,9.02
2022-10-23T19:51:50.651Z,6.32
2022-10-23T19:54:21.428Z,8.25
2022-10-23T19:56:49.111Z,6.25
2022-10-23T19:59:17.302Z,6.05
2022-10-23T20:01:47.818Z,6.47
2022-10-23T20:04:16.518Z,6.70
2022-10-23T20:06:43.887Z,4.15
2022-10-23T20:09:10.892Z,4.03
2022-10-23T20:11:40.337Z,3.95
2022-10-23T20:14:08.089Z,4.60
2022-10-23T20:16:38.089Z,6.00
2022-10-23T20:19:08.505Z,4.80
2022-10-23T20:21:37.773Z,4.57
2022-10-23T20:24:05.426Z,5.78
2022-10-23T20:26:34.218Z,5.05
2022-10-23T20:29:02.621Z,3.15
2022-10-23T20:31:30.080Z,3.30
2022-10-23T20:33:57.114Z,2.65
2022-10-23T20:36:28.930Z,4.78
2022-10-23T20:38:59.065Z,4.18
2022-10-23T20:41:52.832Z,3.10
2022-10-23T20:44:22.733Z,4.65
2022-10-23T20:46:50.229Z,5.78
2022-10-23T20:49:18.120Z,5.20
2022-10-23T20:51:54.896Z,5.32
2022-10-23T20:54:27.387Z,3.13
2022-10-23T20:56:58.066Z,5.63
2022-10-23T21:02:20.453Z,4.70
2022-10-23T21:04:55.119Z,2.92
2022-10-23T21:07:27.152Z,4.65
2022-10-23T21:09:57.382Z,8.10
2022-10-23T21:12:26.242Z,5.00
2022-10-23T21:14:54.746Z,2.75
2022-10-23T21:17:24.552Z,4.25
2022-10-23T21:19:51.756Z,4.30
2022-10-23T21:22:18.657Z,3.83
2022-10-23T21:24:45.890Z,4.30
2022-10-23T21:27:14.411Z,3.47
2022-10-23T21:29:41.468Z,4.38
2022-10-23T21:32:09.730Z,4.93
2022-10-23T21:34:36.643Z,5.68
2022-10-23T21:37:18.870Z,4.20
2022-10-23T21:39:46.766Z,4.78
2022-10-23T21:42:14.899Z,3.85
2022-10-23T21:44:41.984Z,5.75
2022-10-23T21:47:11.998Z,3.50
2022-10-23T21:49:39.146Z,5.40
2022-10-23T21:52:06.160Z,3.13
2022-10-23T21:54:33.415Z,5.00
2022-10-23T21:57:00.229Z,3.13
2022-10-23T22:02:20.030Z,7.13
2022-10-23T22:04:48.091Z,2.97
2022-10-23T22:07:15.035Z,5.07
2022-10-23T22:09:42.957Z,4.28
2022-10-23T22:12:12.574Z,3.90
2022-10-23T22:14:39.594Z,2.50
2022-10-23T22:17:06.668Z,3.45
2022-10-23T22:19:35.731Z,2.95
2022-10-23T22:22:02.828Z,3.05
2022-10-23T22:24:32.774Z,5.05
2022-10-23T22:26:59.858Z,2.22
2022-10-23T22:29:28.900Z,3.63
2022-10-23T22:31:56.782Z,4.18
2022-10-23T22:37:10.869Z,7.47
2022-10-23T22:39:39.639Z,4.13
2022-10-23T22:42:06.912Z,2.88
2022-10-23T22:44:33.859Z,2.53
2022-10-23T22:47:00.886Z,4.10
2022-10-23T22:49:29.707Z,3.35
2022-10-23T22:51:56.745Z,1.27
2022-10-23T22:54:25.531Z,3.40
2022-10-23T22:56:52.789Z,2.78
2022-10-23T22:59:19.673Z,1.67
2022-10-23T23:01:48.834Z,2.13
2022-10-23T23:04:36.853Z,2.03
2022-10-23T23:07:03.742Z,3.55
2022-10-23T23:09:31.999Z,2.45
2022-10-23T23:11:58.983Z,3.03
2022-10-23T23:14:26.098Z,1.80
2022-10-23T23:16:53.420Z,2.05
2022-10-23T23:19:20.530Z,3.83
2022-10-23T23:21:47.469Z,3.25
2022-10-23T23:24:14.565Z,3.85
2022-10-23T23:26:42.915Z,2.22
2022-10-23T23:29:09.787Z,3.15
2022-10-23T23:31:36.678Z,2.55
2022-10-23T23:34:03.687Z,2.05
2022-10-23T23:36:30.806Z,1.42
2022-10-23T23:38:59.591Z,3.10
2022-10-23T23:41:32.390Z,1.33
2022-10-23T23:44:00.718Z,0.90
2022-10-23T23:46:27.696Z,3.33
2022-10-23T23:48:54.709Z,3.95
2022-10-23T23:51:25.032Z,3.60
2022-10-23T23:53:53.178Z,3.33
2022-10-23T23:56:21.156Z,1.02
2022-10-23T23:58:48.833Z,0.80
